sensor_id;sensor_type;location;lat;lon;timestamp;noise_LAeq;noise_LA_min;noise_LA_max;noise_LA01;noise_LA95
72028;Laerm;59781;52.090;5.030;2022-08-24T00:02:24;37.61;35.49;47.47;;
72028;Laerm;59781;52.090;5.030;2022-08-24T00:04:52;37.14;35.18;39.13;;
72028;Laerm;59781;52.090;5.030;2022-08-24T00:07:20;37.08;35.39;38.59;;
72028;Laerm;59781;52.090;5.030;2022-08-24T00:09:47;37.25;35.33;39.60;;
72028;Laerm;59781;52.090;5.030;2022-08-24T00:12:14;37.86;35.60;44.39;;
72028;Laerm;59781;52.090;5.030;2022-08-24T00:14:42;37.47;35.68;39.79;;
72028;Laerm;59781;52.090;5.030;2022-08-24T00:17:08;37.52;35.59;39.30;;
72028;Laerm;59781;52.090;5.030;2022-08-24T00:19:34;37.67;35.85;45.27;;
72028;Laerm;59781;52.090;5.030;2022-08-24T00:22:01;37.64;35.53;44.37;;
72028;Laerm;59781;52.090;5.030;2022-08-24T00:24:27;40.35;35.70;50.63;;
72028;Laerm;59781;52.090;5.030;2022-08-24T00:26:53;37.27;35.25;38.96;;
72028;Laerm;59781;52.090;5.030;2022-08-24T00:29:21;37.68;35.70;40.85;;
72028;Laerm;59781;52.090;5.030;2022-08-24T00:31:48;37.53;35.57;41.02;;
72028;Laerm;59781;52.090;5.030;2022-08-24T00:34:15;37.66;35.24;47.61;;
72028;Laerm;59781;52.090;5.030;2022-08-24T00:36:43;38.14;35.70;45.79;;
72028;Laerm;59781;52.090;5.030;2022-08-24T00:39:11;37.45;35.57;40.54;;
72028;Laerm;59781;52.090;5.030;2022-08-24T00:41:44;38.51;35.69;45.83;;
72028;Laerm;59781;52.090;5.030;2022-08-24T00:44:12;38.28;35.66;43.35;;
72028;Laerm;59781;52.090;5.030;2022-08-24T00:47:03;37.50;35.49;41.31;;
72028;Laerm;59781;52.090;5.030;2022-08-24T00:52:29;37.71;35.86;41.33;;
72028;Laerm;59781;52.090;5.030;2022-08-24T00:55:09;37.81;35.74;44.46;;
72028;Laerm;59781;52.090;5.030;2022-08-24T00:57:42;37.83;35.91;42.11;;
72028;Laerm;59781;52.090;5.030;2022-08-24T01:00:22;38.17;35.84;46.57;;
72028;Laerm;59781;52.090;5.030;2022-08-24T01:02:55;37.43;35.55;39.60;;
72028;Laerm;59781;52.090;5.030;2022-08-24T01:05:24;37.66;35.65;39.74;;
72028;Laerm;59781;52.090;5.030;2022-08-24T01:07:52;37.48;35.60;39.25;;
72028;Laerm;59781;52.090;5.030;2022-08-24T01:10:26;37.51;35.55;42.03;;
72028;Laerm;59781;52.090;5.030;2022-08-24T01:12:58;37.63;35.97;39.69;;
72028;Laerm;59781;52.090;5.030;2022-08-24T01:15:27;38.05;35.93;50.40;;
72028;Laerm;59781;52.090;5.030;2022-08-24T01:17:54;37.55;35.71;44.59;;
72028;Laerm;59781;52.090;5.030;2022-08-24T01:20:45;38.19;35.83;46.19;;
72028;Laerm;59781;52.090;5.030;2022-08-24T01:23:41;38.58;36.89;41.35;;
72028;Laerm;59781;52.090;5.030;2022-08-24T01:26:15;40.00;36.68;47.63;;
72028;Laerm;59781;52.090;5.030;2022-08-24T01:28:49;38.44;36.62;40.17;;
72028;Laerm;59781;52.090;5.030;2022-08-24T01:31:21;51.39;36.39;77.22;;
72028;Laerm;59781;52.090;5.030;2022-08-24T01:33:50;38.37;36.31;41.67;;
72028;Laerm;59781;52.090;5.030;2022-08-24T01:39:02;38.47;36.41;41.19;;
72028;Laerm;59781;52.090;5.030;2022-08-24T01:41:30;38.34;36.09;40.61;;
72028;Laerm;59781;52.090;5.030;2022-08-24T01:43:58;38.50;36.42;44.02;;
72028;Laerm;59781;52.090;5.030;2022-08-24T01:46:27;38.28;36.37;40.22;;
72028;Laerm;59781;52.090;5.030;2022-08-24T01:48:55;38.29;36.40;45.02;;
72028;Laerm;59781;52.090;5.030;2022-08-24T01:51:25;38.64;36.53;44.84;;
72028;Laerm;59781;52.090;5.030;2022-08-24T01:53:53;38.31;36.34;42.09;;
72028;Laerm;59781;52.090;5.030;2022-08-24T01:56:18;38.14;36.18;43.11;;
72028;Laerm;59781;52.090;5.030;2022-08-24T01:58:46;38.26;36.24;45.26;;
72028;Laerm;59781;52.090;5.030;2022-08-24T02:01:16;38.35;36.37;51.51;;
72028;Laerm;59781;52.090;5.030;2022-08-24T02:03:43;38.24;36.41;41.11;;
72028;Laerm;59781;52.090;5.030;2022-08-24T02:06:10;38.28;36.36;40.33;;
72028;Laerm;59781;52.090;5.030;2022-08-24T02:08:36;38.30;36.49;41.85;;
72028;Laerm;59781;52.090;5.030;2022-08-24T02:11:06;38.44;36.55;43.08;;
72028;Laerm;59781;52.090;5.030;2022-08-24T02:13:35;38.34;36.45;42.66;;
72028;Laerm;59781;52.090;5.030;2022-08-24T02:16:02;38.25;36.23;42.76;;
72028;Laerm;59781;52.090;5.030;2022-08-24T02:18:33;38.56;36.38;41.21;;
72028;Laerm;59781;52.090;5.030;2022-08-24T02:21:00;38.28;36.45;40.25;;
72028;Laerm;59781;52.090;5.030;2022-08-24T02:23:27;40.84;36.07;50.71;;
72028;Laerm;59781;52.090;5.030;2022-08-24T02:25:55;37.55;35.40;45.07;;
72028;Laerm;59781;52.090;5.030;2022-08-24T02:28:21;37.43;35.64;39.19;;
72028;Laerm;59781;52.090;5.030;2022-08-24T02:30:48;37.41;35.55;39.36;;
72028;Laerm;59781;52.090;5.030;2022-08-24T02:33:14;37.81;35.76;40.84;;
72028;Laerm;59781;52.090;5.030;2022-08-24T02:35:40;38.01;35.76;46.73;;
72028;Laerm;59781;52.090;5.030;2022-08-24T02:38:07;38.20;35.89;42.16;;
72028;Laerm;59781;52.090;5.030;2022-08-24T02:40:35;38.16;35.85;42.01;;
72028;Laerm;59781;52.090;5.030;2022-08-24T02:43:01;38.00;35.94;41.88;;
72028;Laerm;59781;52.090;5.030;2022-08-24T02:45:27;38.22;36.11;42.42;;
72028;Laerm;59781;52.090;5.030;2022-08-24T02:47:53;38.16;36.09;41.88;;
72028;Laerm;59781;52.090;5.030;2022-08-24T02:50:21;38.22;35.99;41.23;;
72028;Laerm;59781;52.090;5.030;2022-08-24T02:52:47;37.89;35.83;39.50;;
72028;Laerm;59781;52.090;5.030;2022-08-24T02:55:17;38.13;35.88;43.51;;
72028;Laerm;59781;52.090;5.030;2022-08-24T02:57:44;38.00;35.95;40.45;;
72028;Laerm;59781;52.090;5.030;2022-08-24T03:00:14;38.42;36.24;45.18;;
72028;Laerm;59781;52.090;5.030;2022-08-24T03:02:50;38.34;36.25;42.98;;
72028;Laerm;59781;52.090;5.030;2022-08-24T03:05:17;38.68;36.36;46.04;;
72028;Laerm;59781;52.090;5.030;2022-08-24T03:07:43;38.01;36.01;44.01;;
72028;Laerm;59781;52.090;5.030;2022-08-24T03:10:10;38.06;36.39;43.16;;
72028;Laerm;59781;52.090;5.030;2022-08-24T03:12:38;38.66;36.26;45.02;;
72028;Laerm;59781;52.090;5.030;2022-08-24T03:15:09;38.75;36.20;45.18;;
72028;Laerm;59781;52.090;5.030;2022-08-24T03:17:37;47.93;36.26;59.46;;
72028;Laerm;59781;52.090;5.030;2022-08-24T03:20:07;38.36;35.69;44.87;;
72028;Laerm;59781;52.090;5.030;2022-08-24T03:22:36;38.22;36.04;41.62;;
72028;Laerm;59781;52.090;5.030;2022-08-24T03:25:04;38.69;36.50;41.35;;
72028;Laerm;59781;52.090;5.030;2022-08-24T03:27:30;39.78;36.55;46.12;;
72028;Laerm;59781;52.090;5.030;2022-08-24T03:29:56;38.55;36.04;41.82;;
72028;Laerm;59781;52.090;5.030;2022-08-24T03:32:23;38.57;36.36;42.81;;
72028;Laerm;59781;52.090;5.030;2022-08-24T03:34:49;38.42;36.33;41.69;;
72028;Laerm;59781;52.090;5.030;2022-08-24T03:37:16;38.50;36.36;40.49;;
72028;Laerm;59781;52.090;5.030;2022-08-24T03:39:42;38.29;36.36;40.14;;
72028;Laerm;59781;52.090;5.030;2022-08-24T03:42:08;38.61;36.41;42.24;;
72028;Laerm;59781;52.090;5.030;2022-08-24T03:44:34;38.75;36.66;45.11;;
72028;Laerm;59781;52.090;5.030;2022-08-24T03:46:59;38.81;36.49;41.88;;
72028;Laerm;59781;52.090;5.030;2022-08-24T03:49:26;38.98;36.83;44.51;;
72028;Laerm;59781;52.090;5.030;2022-08-24T03:51:52;38.75;36.79;43.98;;
72028;Laerm;59781;52.090;5.030;2022-08-24T03:54:21;38.83;36.74;41.94;;
72028;Laerm;59781;52.090;5.030;2022-08-24T03:56:47;39.09;37.14;43.23;;
72028;Laerm;59781;52.090;5.030;2022-08-24T03:59:12;38.71;36.58;41.27;;
72028;Laerm;59781;52.090;5.030;2022-08-24T04:01:41;39.91;37.24;44.87;;
72028;Laerm;59781;52.090;5.030;2022-08-24T04:04:09;39.62;36.97;44.40;;
72028;Laerm;59781;52.090;5.030;2022-08-24T04:06:36;38.81;36.53;44.36;;
72028;Laerm;59781;52.090;5.030;2022-08-24T04:09:04;38.99;36.68;42.17;;
72028;Laerm;59781;52.090;5.030;2022-08-24T04:11:34;48.31;36.38;58.80;;
72028;Laerm;59781;52.090;5.030;2022-08-24T04:14:00;41.51;37.18;50.23;;
72028;Laerm;59781;52.090;5.030;2022-08-24T04:16:28;39.27;36.97;46.13;;
72028;Laerm;59781;52.090;5.030;2022-08-24T04:19:13;39.54;36.43;49.15;;
72028;Laerm;59781;52.090;5.030;2022-08-24T04:21:39;39.52;36.77;53.16;;
72028;Laerm;59781;52.090;5.030;2022-08-24T04:24:08;41.19;37.04;53.46;;
72028;Laerm;59781;52.090;5.030;2022-08-24T04:26:38;40.88;37.00;58.87;;
72028;Laerm;59781;52.090;5.030;2022-08-24T04:29:08;40.28;37.21;62.45;;
72028;Laerm;59781;52.090;5.030;2022-08-24T04:31:40;39.18;36.70;46.03;;
72028;Laerm;59781;52.090;5.030;2022-08-24T04:34:09;39.55;36.72;52.44;;
72028;Laerm;59781;52.090;5.030;2022-08-24T04:36:39;39.39;36.78;44.80;;
72028;Laerm;59781;52.090;5.030;2022-08-24T04:39:06;40.78;37.26;47.66;;
72028;Laerm;59781;52.090;5.030;2022-08-24T04:41:49;45.65;37.40;55.08;;
72028;Laerm;59781;52.090;5.030;2022-08-24T04:44:15;43.34;37.24;52.43;;
72028;Laerm;59781;52.090;5.030;2022-08-24T04:46:41;40.80;38.09;47.07;;
72028;Laerm;59781;52.090;5.030;2022-08-24T04:49:08;40.53;38.08;48.64;;
72028;Laerm;59781;52.090;5.030;2022-08-24T04:51:34;40.73;37.67;44.78;;
72028;Laerm;59781;52.090;5.030;2022-08-24T04:54:00;40.71;38.08;44.62;;
72028;Laerm;59781;52.090;5.030;2022-08-24T04:56:26;48.35;37.99;58.97;;
72028;Laerm;59781;52.090;5.030;2022-08-24T04:58:55;43.82;38.62;51.79;;
72028;Laerm;59781;52.090;5.030;2022-08-24T05:01:25;42.67;38.49;59.12;;
72028;Laerm;59781;52.090;5.030;2022-08-24T05:03:55;44.37;39.43;54.05;;
72028;Laerm;59781;52.090;5.030;2022-08-24T05:06:25;48.89;37.89;73.92;;
72028;Laerm;59781;52.090;5.030;2022-08-24T05:08:52;43.34;38.41;59.79;;
72028;Laerm;59781;52.090;5.030;2022-08-24T05:11:21;41.33;38.36;53.03;;
72028;Laerm;59781;52.090;5.030;2022-08-24T05:13:52;42.30;38.12;52.17;;
72028;Laerm;59781;52.090;5.030;2022-08-24T05:16:18;41.60;38.86;49.10;;
72028;Laerm;59781;52.090;5.030;2022-08-24T05:18:46;42.45;39.56;45.45;;
72028;Laerm;59781;52.090;5.030;2022-08-24T05:21:18;42.90;40.05;47.35;;
72028;Laerm;59781;52.090;5.030;2022-08-24T05:23:44;42.81;39.14;55.21;;
72028;Laerm;59781;52.090;5.030;2022-08-24T05:26:22;41.99;39.07;46.19;;
72028;Laerm;59781;52.090;5.030;2022-08-24T05:28:54;42.16;39.15;49.22;;
72028;Laerm;59781;52.090;5.030;2022-08-24T05:31:24;42.02;38.41;55.63;;
72028;Laerm;59781;52.090;5.030;2022-08-24T05:33:50;42.07;38.91;55.68;;
72028;Laerm;59781;52.090;5.030;2022-08-24T05:38:50;44.01;39.73;55.05;;
72028;Laerm;59781;52.090;5.030;2022-08-24T05:41:18;43.01;39.82;53.43;;
72028;Laerm;59781;52.090;5.030;2022-08-24T05:43:46;44.18;40.17;53.58;;
72028;Laerm;59781;52.090;5.030;2022-08-24T05:46:13;45.73;40.67;50.10;;
72028;Laerm;59781;52.090;5.030;2022-08-24T05:48:39;43.89;40.17;51.19;;
72028;Laerm;59781;52.090;5.030;2022-08-24T05:51:07;45.63;40.98;60.68;;
72028;Laerm;59781;52.090;5.030;2022-08-24T05:53:38;45.10;39.91;51.08;;
72028;Laerm;59781;52.090;5.030;2022-08-24T05:56:09;43.11;39.77;54.59;;
72028;Laerm;59781;52.090;5.030;2022-08-24T05:58:36;45.67;41.41;58.52;;
72028;Laerm;59781;52.090;5.030;2022-08-24T06:01:16;44.13;41.08;60.73;;
72028;Laerm;59781;52.090;5.030;2022-08-24T06:03:43;43.67;39.82;54.79;;
72028;Laerm;59781;52.090;5.030;2022-08-24T06:06:13;43.82;39.04;67.88;;
72028;Laerm;59781;52.090;5.030;2022-08-24T06:08:43;43.06;39.09;57.18;;
72028;Laerm;59781;52.090;5.030;2022-08-24T06:11:28;43.63;39.59;60.06;;
72028;Laerm;59781;52.090;5.030;2022-08-24T06:14:22;43.28;39.58;68.84;;
72028;Laerm;59781;52.090;5.030;2022-08-24T06:16:53;42.91;39.22;56.60;;
72028;Laerm;59781;52.090;5.030;2022-08-24T06:19:21;42.84;38.97;54.26;;
72028;Laerm;59781;52.090;5.030;2022-08-24T06:21:51;42.40;39.43;49.09;;
72028;Laerm;59781;52.090;5.030;2022-08-24T06:24:20;44.47;39.64;53.26;;
72028;Laerm;59781;52.090;5.030;2022-08-24T06:27:07;41.87;38.71;52.60;;
72028;Laerm;59781;52.090;5.030;2022-08-24T06:30:02;41.74;38.41;50.75;;
72028;Laerm;59781;52.090;5.030;2022-08-24T06:32:43;41.85;38.82;48.97;;
72028;Laerm;59781;52.090;5.030;2022-08-24T06:35:19;43.11;38.73;57.38;;
72028;Laerm;59781;52.090;5.030;2022-08-24T06:37:45;41.34;37.40;55.62;;
72028;Laerm;59781;52.090;5.030;2022-08-24T06:40:11;41.97;38.13;54.18;;
72028;Laerm;59781;52.090;5.030;2022-08-24T06:42:37;41.76;38.29;48.04;;
72028;Laerm;59781;52.090;5.030;2022-08-24T06:45:14;41.01;36.82;59.82;;
72028;Laerm;59781;52.090;5.030;2022-08-24T06:47:40;43.32;37.31;52.37;;
72028;Laerm;59781;52.090;5.030;2022-08-24T06:50:07;40.83;36.42;47.72;;
72028;Laerm;59781;52.090;5.030;2022-08-24T06:52:34;40.03;36.38;45.66;;
72028;Laerm;59781;52.090;5.030;2022-08-24T06:55:01;40.04;36.66;52.67;;
72028;Laerm;59781;52.090;5.030;2022-08-24T06:57:27;43.04;36.54;69.49;;
72028;Laerm;59781;52.090;5.030;2022-08-24T06:59:53;39.36;35.88;51.52;;
72028;Laerm;59781;52.090;5.030;2022-08-24T07:02:19;40.19;36.81;50.64;;
72028;Laerm;59781;52.090;5.030;2022-08-24T07:04:46;39.21;36.00;50.33;;
72028;Laerm;59781;52.090;5.030;2022-08-24T07:07:31;41.85;36.08;67.95;;
72028;Laerm;59781;52.090;5.030;2022-08-24T07:09:59;39.37;35.95;51.27;;
72028;Laerm;59781;52.090;5.030;2022-08-24T07:12:25;40.09;36.06;47.47;;
72028;Laerm;59781;52.090;5.030;2022-08-24T07:14:52;40.97;36.31;49.69;;
72028;Laerm;59781;52.090;5.030;2022-08-24T07:17:19;40.82;36.61;48.47;;
72028;Laerm;59781;52.090;5.030;2022-08-24T07:19:45;40.32;35.80;58.51;;
72028;Laerm;59781;52.090;5.030;2022-08-24T07:22:13;39.39;36.13;52.31;;
72028;Laerm;59781;52.090;5.030;2022-08-24T07:24:40;41.67;35.88;51.34;;
72028;Laerm;59781;52.090;5.030;2022-08-24T07:27:05;39.90;36.31;53.89;;
72028;Laerm;59781;52.090;5.030;2022-08-24T07:29:33;40.73;36.10;55.37;;
72028;Laerm;59781;52.090;5.030;2022-08-24T07:31:58;41.72;36.41;48.53;;
72028;Laerm;59781;52.090;5.030;2022-08-24T07:34:31;39.70;36.46;44.67;;
72028;Laerm;59781;52.090;5.030;2022-08-24T07:36:58;39.82;36.64;49.74;;
72028;Laerm;59781;52.090;5.030;2022-08-24T07:39:28;40.13;36.37;48.73;;
72028;Laerm;59781;52.090;5.030;2022-08-24T07:41:55;40.06;35.43;56.21;;
72028;Laerm;59781;52.090;5.030;2022-08-24T07:44:22;39.29;36.00;50.72;;
72028;Laerm;59781;52.090;5.030;2022-08-24T07:46:48;39.55;36.30;54.36;;
72028;Laerm;59781;52.090;5.030;2022-08-24T07:49:14;38.80;35.68;52.59;;
72028;Laerm;59781;52.090;5.030;2022-08-24T07:51:40;40.43;36.64;47.56;;
72028;Laerm;59781;52.090;5.030;2022-08-24T07:54:06;40.58;36.82;50.72;;
72028;Laerm;59781;52.090;5.030;2022-08-24T07:56:40;43.78;35.57;53.29;;
72028;Laerm;59781;52.090;5.030;2022-08-24T07:59:07;41.67;36.82;48.80;;
72028;Laerm;59781;52.090;5.030;2022-08-24T08:01:33;40.26;36.93;49.15;;
72028;Laerm;59781;52.090;5.030;2022-08-24T08:03:59;41.56;36.35;52.54;;
72028;Laerm;59781;52.090;5.030;2022-08-24T08:06:25;39.45;35.88;47.74;;
72028;Laerm;59781;52.090;5.030;2022-08-24T08:08:55;42.81;36.02;55.41;;
72028;Laerm;59781;52.090;5.030;2022-08-24T08:11:21;39.55;36.03;44.58;;
72028;Laerm;59781;52.090;5.030;2022-08-24T08:13:47;42.28;37.04;68.17;;
72028;Laerm;59781;52.090;5.030;2022-08-24T08:16:14;40.02;36.49;47.77;;
72028;Laerm;59781;52.090;5.030;2022-08-24T08:18:40;41.12;36.63;48.08;;
72028;Laerm;59781;52.090;5.030;2022-08-24T08:21:10;43.08;36.67;59.09;;
72028;Laerm;59781;52.090;5.030;2022-08-24T08:23:57;43.01;36.56;59.44;;
72028;Laerm;59781;52.090;5.030;2022-08-24T08:26:48;46.47;36.77;79.11;;
72028;Laerm;59781;52.090;5.030;2022-08-24T08:29:34;39.93;36.57;56.61;;
72028;Laerm;59781;52.090;5.030;2022-08-24T08:32:01;39.07;36.53;44.80;;
72028;Laerm;59781;52.090;5.030;2022-08-24T08:34:28;42.10;36.76;50.33;;
72028;Laerm;59781;52.090;5.030;2022-08-24T08:36:57;40.32;36.53;47.66;;
72028;Laerm;59781;52.090;5.030;2022-08-24T08:39:23;51.18;36.11;85.91;;
72028;Laerm;59781;52.090;5.030;2022-08-24T08:45:20;45.96;36.06;75.04;;
72028;Laerm;59781;52.090;5.030;2022-08-24T08:54:58;39.81;36.58;53.91;;
72028;Laerm;59781;52.090;5.030;2022-08-24T08:57:41;54.31;36.39;89.01;;
72028;Laerm;59781;52.090;5.030;2022-08-24T09:00:23;40.02;36.31;56.72;;
72028;Laerm;59781;52.090;5.030;2022-08-24T09:03:38;40.66;36.33;46.62;;
72028;Laerm;59781;52.090;5.030;2022-08-24T09:09:19;50.00;36.48;76.57;;
72028;Laerm;59781;52.090;5.030;2022-08-24T09:24:20;41.93;37.25;51.40;;
72028;Laerm;59781;52.090;5.030;2022-08-24T09:33:44;39.94;36.81;54.16;;
72028;Laerm;59781;52.090;5.030;2022-08-24T09:39:58;40.35;36.83;48.24;;
72028;Laerm;59781;52.090;5.030;2022-08-24T09:46:09;39.40;36.45;53.32;;
72028;Laerm;59781;52.090;5.030;2022-08-24T09:55:07;41.32;36.43;52.67;;
72028;Laerm;59781;52.090;5.030;2022-08-24T09:57:57;39.48;36.39;49.44;;
72028;Laerm;59781;52.090;5.030;2022-08-24T10:00:52;40.46;36.60;45.61;;
72028;Laerm;59781;52.090;5.030;2022-08-24T10:10:31;44.58;36.32;59.75;;
72028;Laerm;59781;52.090;5.030;2022-08-24T10:13:24;40.34;35.94;55.93;;
72028;Laerm;59781;52.090;5.030;2022-08-24T10:19:44;40.64;36.91;53.58;;
72028;Laerm;59781;52.090;5.030;2022-08-24T10:26:30;40.16;36.38;54.20;;
72028;Laerm;59781;52.090;5.030;2022-08-24T10:29:21;41.66;36.24;57.21;;
72028;Laerm;59781;52.090;5.030;2022-08-24T10:32:24;40.61;36.83;51.68;;
72028;Laerm;59781;52.090;5.030;2022-08-24T10:35:16;39.69;36.58;56.49;;
72028;Laerm;59781;52.090;5.030;2022-08-24T10:46:59;40.86;36.52;51.29;;
72028;Laerm;59781;52.090;5.030;2022-08-24T10:50:02;42.25;37.25;57.02;;
72028;Laerm;59781;52.090;5.030;2022-08-24T10:55:33;40.58;36.38;60.11;;
72028;Laerm;59781;52.090;5.030;2022-08-24T11:00:40;40.53;36.17;47.03;;
72028;Laerm;59781;52.090;5.030;2022-08-24T11:03:16;40.25;36.56;51.07;;
72028;Laerm;59781;52.090;5.030;2022-08-24T11:05:52;41.93;36.48;55.04;;
72028;Laerm;59781;52.090;5.030;2022-08-24T11:08:29;42.16;37.95;62.85;;
72028;Laerm;59781;52.090;5.030;2022-08-24T11:11:12;42.92;36.50;53.13;;
72028;Laerm;59781;52.090;5.030;2022-08-24T11:14:03;44.96;37.29;60.72;;
72028;Laerm;59781;52.090;5.030;2022-08-24T11:16:33;52.10;36.36;78.44;;
72028;Laerm;59781;52.090;5.030;2022-08-24T11:19:10;42.05;36.65;53.35;;
72028;Laerm;59781;52.090;5.030;2022-08-24T11:21:45;44.16;36.79;71.30;;
72028;Laerm;59781;52.090;5.030;2022-08-24T11:27:06;42.28;36.35;57.14;;
72028;Laerm;59781;52.090;5.030;2022-08-24T11:32:39;40.65;36.55;49.91;;
72028;Laerm;59781;52.090;5.030;2022-08-24T11:35:26;52.60;35.82;80.24;;
72028;Laerm;59781;52.090;5.030;2022-08-24T11:38:02;62.37;36.39;86.40;;
72028;Laerm;59781;52.090;5.030;2022-08-24T11:40:39;53.23;36.59;86.88;;
72028;Laerm;59781;52.090;5.030;2022-08-24T11:43:46;41.45;37.24;64.24;;
72028;Laerm;59781;52.090;5.030;2022-08-24T11:46:37;55.47;36.62;83.23;;
72028;Laerm;59781;52.090;5.030;2022-08-24T11:49:58;58.04;36.92;92.96;;
72028;Laerm;59781;52.090;5.030;2022-08-24T12:20:43;43.49;37.79;64.16;;
72028;Laerm;59781;52.090;5.030;2022-08-24T12:24:04;42.71;36.45;53.98;;
72028;Laerm;59781;52.090;5.030;2022-08-24T12:27:47;40.93;35.94;55.32;;
72028;Laerm;59781;52.090;5.030;2022-08-24T12:30:17;42.24;36.75;65.69;;
72028;Laerm;59781;52.090;5.030;2022-08-24T12:38:07;43.63;36.46;59.59;;
72028;Laerm;59781;52.090;5.030;2022-08-24T12:41:33;40.56;36.03;51.40;;
72028;Laerm;59781;52.090;5.030;2022-08-24T12:45:36;46.41;37.15;68.36;;
72028;Laerm;59781;52.090;5.030;2022-08-24T12:49:45;41.94;36.48;58.81;;
72028;Laerm;59781;52.090;5.030;2022-08-24T12:56:01;39.45;36.00;58.24;;
72028;Laerm;59781;52.090;5.030;2022-08-24T13:03:47;41.53;36.54;63.95;;
72028;Laerm;59781;52.090;5.030;2022-08-24T13:07:39;48.33;36.53;65.57;;
72028;Laerm;59781;52.090;5.030;2022-08-24T13:34:40;46.22;43.44;53.66;;
72028;Laerm;59781;52.090;5.030;2022-08-24T13:37:18;48.20;43.25;58.29;;
72028;Laerm;59781;52.090;5.030;2022-08-24T13:40:28;45.63;42.97;64.35;;
72028;Laerm;59781;52.090;5.030;2022-08-24T13:43:43;45.59;42.78;51.77;;
72028;Laerm;59781;52.090;5.030;2022-08-24T13:51:17;40.07;36.54;48.48;;
72028;Laerm;59781;52.090;5.030;2022-08-24T13:54:49;40.03;35.94;52.66;;
72028;Laerm;59781;52.090;5.030;2022-08-24T14:07:13;42.97;37.07;63.58;;
72028;Laerm;59781;52.090;5.030;2022-08-24T14:14:31;41.87;36.75;65.50;;
72028;Laerm;59781;52.090;5.030;2022-08-24T14:22:32;44.11;36.88;57.53;;
72028;Laerm;59781;52.090;5.030;2022-08-24T14:25:17;42.96;36.62;54.09;;
72028;Laerm;59781;52.090;5.030;2022-08-24T14:29:41;46.00;37.20;69.85;;
72028;Laerm;59781;52.090;5.030;2022-08-24T14:33:32;41.39;36.04;63.64;;
72028;Laerm;59781;52.090;5.030;2022-08-24T14:40:27;41.93;36.40;58.83;;
72028;Laerm;59781;52.090;5.030;2022-08-24T14:42:59;40.19;36.02;54.86;;
72028;Laerm;59781;52.090;5.030;2022-08-24T14:46:22;40.56;36.75;53.59;;
72028;Laerm;59781;52.090;5.030;2022-08-24T15:04:02;44.02;36.76;55.08;;
72028;Laerm;59781;52.090;5.030;2022-08-24T15:23:29;41.82;37.59;61.54;;
72028;Laerm;59781;52.090;5.030;2022-08-24T15:28:31;41.34;36.38;59.64;;
72028;Laerm;59781;52.090;5.030;2022-08-24T15:31:05;42.04;37.22;55.54;;
72028;Laerm;59781;52.090;5.030;2022-08-24T15:33:55;40.91;36.54;50.93;;
72028;Laerm;59781;52.090;5.030;2022-08-24T15:36:24;41.32;36.34;55.52;;
72028;Laerm;59781;52.090;5.030;2022-08-24T15:38:50;41.45;37.50;50.75;;
72028;Laerm;59781;52.090;5.030;2022-08-24T15:41:39;43.38;37.21;66.01;;
72028;Laerm;59781;52.090;5.030;2022-08-24T15:44:23;48.00;36.97;62.12;;
72028;Laerm;59781;52.090;5.030;2022-08-24T15:47:02;41.05;36.72;50.31;;
72028;Laerm;59781;52.090;5.030;2022-08-24T15:49:35;40.65;37.12;52.13;;
72028;Laerm;59781;52.090;5.030;2022-08-24T15:52:40;46.63;37.33;61.10;;
72028;Laerm;59781;52.090;5.030;2022-08-24T15:55:38;41.15;37.59;53.37;;
72028;Laerm;59781;52.090;5.030;2022-08-24T15:58:36;44.26;37.01;61.27;;
72028;Laerm;59781;52.090;5.030;2022-08-24T16:04:00;42.14;36.49;65.57;;
72028;Laerm;59781;52.090;5.030;2022-08-24T16:11:34;44.98;36.99;61.81;;
72028;Laerm;59781;52.090;5.030;2022-08-24T16:14:42;40.77;36.37;56.89;;
72028;Laerm;59781;52.090;5.030;2022-08-24T16:17:36;39.80;36.46;51.03;;
72028;Laerm;59781;52.090;5.030;2022-08-24T16:20:29;45.13;36.06;71.49;;
72028;Laerm;59781;52.090;5.030;2022-08-24T16:23:27;44.71;37.01;68.09;;
72028;Laerm;59781;52.090;5.030;2022-08-24T16:26:21;43.30;36.38;61.06;;
72028;Laerm;59781;52.090;5.030;2022-08-24T16:28:49;41.24;36.27;65.86;;
72028;Laerm;59781;52.090;5.030;2022-08-24T16:34:22;41.40;36.91;61.00;;
72028;Laerm;59781;52.090;5.030;2022-08-24T16:36:51;45.46;36.20;68.10;;
72028;Laerm;59781;52.090;5.030;2022-08-24T16:39:17;42.61;37.46;60.34;;
72028;Laerm;59781;52.090;5.030;2022-08-24T16:41:50;46.32;36.94;75.29;;
72028;Laerm;59781;52.090;5.030;2022-08-24T16:44:17;43.46;36.79;67.84;;
72028;Laerm;59781;52.090;5.030;2022-08-24T16:46:45;43.70;37.47;59.59;;
72028;Laerm;59781;52.090;5.030;2022-08-24T16:49:11;42.38;36.95;57.34;;
72028;Laerm;59781;52.090;5.030;2022-08-24T16:51:37;42.26;37.38;65.59;;
72028;Laerm;59781;52.090;5.030;2022-08-24T16:54:02;44.86;37.84;64.71;;
72028;Laerm;59781;52.090;5.030;2022-08-24T16:56:41;46.48;37.82;60.64;;
72028;Laerm;59781;52.090;5.030;2022-08-24T16:59:27;46.72;39.39;64.89;;
72028;Laerm;59781;52.090;5.030;2022-08-24T17:01:54;48.35;38.82;67.95;;
72028;Laerm;59781;52.090;5.030;2022-08-24T17:04:20;48.31;38.16;68.57;;
72028;Laerm;59781;52.090;5.030;2022-08-24T17:06:46;46.79;37.69;73.91;;
72028;Laerm;59781;52.090;5.030;2022-08-24T17:09:17;58.29;39.87;93.08;;
72028;Laerm;59781;52.090;5.030;2022-08-24T17:12:25;58.75;37.67;91.40;;
72028;Laerm;59781;52.090;5.030;2022-08-24T17:14:52;49.97;37.50;71.93;;
72028;Laerm;59781;52.090;5.030;2022-08-24T17:17:22;47.07;37.48;68.91;;
72028;Laerm;59781;52.090;5.030;2022-08-24T17:23:46;44.62;36.92;77.13;;
72028;Laerm;59781;52.090;5.030;2022-08-24T17:26:14;46.65;37.70;71.87;;
72028;Laerm;59781;52.090;5.030;2022-08-24T17:28:44;49.55;37.41;70.39;;
72028;Laerm;59781;52.090;5.030;2022-08-24T17:31:13;45.96;37.04;66.19;;
72028;Laerm;59781;52.090;5.030;2022-08-24T17:33:40;42.51;37.62;60.80;;
72028;Laerm;59781;52.090;5.030;2022-08-24T17:36:08;42.94;36.45;63.10;;
72028;Laerm;59781;52.090;5.030;2022-08-24T17:38:43;43.08;37.65;60.11;;
72028;Laerm;59781;52.090;5.030;2022-08-24T17:41:12;47.41;37.40;75.61;;
72028;Laerm;59781;52.090;5.030;2022-08-24T17:43:37;43.03;37.79;60.70;;
72028;Laerm;59781;52.090;5.030;2022-08-24T17:46:03;47.87;37.37;59.02;;
72028;Laerm;59781;52.090;5.030;2022-08-24T17:49:14;42.56;38.12;50.15;;
72028;Laerm;59781;52.090;5.030;2022-08-24T17:51:53;41.69;37.73;58.18;;
72028;Laerm;59781;52.090;5.030;2022-08-24T17:54:21;43.99;37.28;70.57;;
72028;Laerm;59781;52.090;5.030;2022-08-24T17:57:13;47.62;38.39;57.90;;
72028;Laerm;59781;52.090;5.030;2022-08-24T17:59:40;42.55;37.26;54.56;;
72028;Laerm;59781;52.090;5.030;2022-08-24T18:02:09;41.44;37.74;60.15;;
72028;Laerm;59781;52.090;5.030;2022-08-24T18:04:38;49.29;37.57;79.60;;
72028;Laerm;59781;52.090;5.030;2022-08-24T18:07:12;41.31;37.43;58.05;;
72028;Laerm;59781;52.090;5.030;2022-08-24T18:09:43;41.82;37.71;54.77;;
72028;Laerm;59781;52.090;5.030;2022-08-24T18:12:23;55.01;37.40;69.01;;
72028;Laerm;59781;52.090;5.030;2022-08-24T18:14:51;54.27;39.27;85.70;;
72028;Laerm;59781;52.090;5.030;2022-08-24T18:17:25;46.05;40.35;62.45;;
72028;Laerm;59781;52.090;5.030;2022-08-24T18:19:55;49.35;39.84;62.15;;
72028;Laerm;59781;52.090;5.030;2022-08-24T18:22:21;44.54;39.97;60.40;;
72028;Laerm;59781;52.090;5.030;2022-08-24T18:24:46;45.48;37.72;64.87;;